sensor_id;sensor_type;location;lat;lon;timestamp;P1;durP1;ratioP1;P2;durP2;ratioP2
7485;SDS011;3784;54.098;9.998;2022-10-22T00:02:14;46.37;;;31.90;;
7485;SDS011;3784;54.098;9.998;2022-10-22T00:04:45;54.67;;;32.60;;
7485;SDS011;3784;54.098;9.998;2022-10-22T00:07:13;47.87;;;31.60;;
7485;SDS011;3784;54.098;9.998;2022-10-22T00:09:40;41.43;;;29.60;;
7485;SDS011;3784;54.098;9.998;2022-10-22T00:12:07;55.10;;;33.37;;
7485;SDS011;3784;54.098;9.998;2022-10-22T00:14:33;47.60;;;32.87;;
7485;SDS011;3784;54.098;9.998;2022-10-22T00:17:00;42.43;;;30.87;;
7485;SDS011;3784;54.098;9.998;2022-10-22T00:19:27;42.60;;;31.07;;
7485;SDS011;3784;54.098;9.998;2022-10-22T00:21:53;58.23;;;35.03;;
7485;SDS011;3784;54.098;9.998;2022-10-22T00:24:20;50.97;;;32.57;;
7485;SDS011;3784;54.098;9.998;2022-10-22T00:26:46;51.37;;;33.27;;
7485;SDS011;3784;54.098;9.998;2022-10-22T00:29:13;52.67;;;33.77;;
7485;SDS011;3784;54.098;9.998;2022-10-22T00:31:39;51.20;;;33.50;;
7485;SDS011;3784;54.098;9.998;2022-10-22T00:34:06;65.90;;;37.00;;
7485;SDS011;3784;54.098;9.998;2022-10-22T00:36:32;58.00;;;35.10;;
7485;SDS011;3784;54.098;9.998;2022-10-22T00:38:59;52.07;;;33.73;;
7485;SDS011;3784;54.098;9.998;2022-10-22T00:41:25;57.33;;;35.23;;
7485;SDS011;3784;54.098;9.998;2022-10-22T00:43:59;46.77;;;33.10;;
7485;SDS011;3784;54.098;9.998;2022-10-22T00:46:27;64.73;;;37.17;;
7485;SDS011;3784;54.098;9.998;2022-10-22T00:48:55;50.73;;;32.50;;
7485;SDS011;3784;54.098;9.998;2022-10-22T00:51:23;62.47;;;36.77;;
7485;SDS011;3784;54.098;9.998;2022-10-22T00:53:53;38.53;;;28.17;;
7485;SDS011;3784;54.098;9.998;2022-10-22T00:56:21;50.90;;;31.37;;
7485;SDS011;3784;54.098;9.998;2022-10-22T00:58:51;92.27;;;38.90;;
7485;SDS011;3784;54.098;9.998;2022-10-22T01:01:24;69.73;;;36.90;;
7485;SDS011;3784;54.098;9.998;2022-10-22T01:03:52;74.73;;;39.07;;
7485;SDS011;3784;54.098;9.998;2022-10-22T01:06:24;48.77;;;32.13;;
7485;SDS011;3784;54.098;9.998;2022-10-22T01:09:08;46.60;;;31.23;;
7485;SDS011;3784;54.098;9.998;2022-10-22T01:12:08;45.80;;;30.17;;
7485;SDS011;3784;54.098;9.998;2022-10-22T01:17:54;42.63;;;29.83;;
7485;SDS011;3784;54.098;9.998;2022-10-22T01:26:04;59.47;;;33.70;;
7485;SDS011;3784;54.098;9.998;2022-10-22T01:28:44;50.10;;;32.60;;
7485;SDS011;3784;54.098;9.998;2022-10-22T01:31:15;56.03;;;34.77;;
7485;SDS011;3784;54.098;9.998;2022-10-22T01:33:43;57.47;;;35.43;;
7485;SDS011;3784;54.098;9.998;2022-10-22T01:36:11;63.53;;;36.00;;
7485;SDS011;3784;54.098;9.998;2022-10-22T01:38:38;65.23;;;36.90;;
7485;SDS011;3784;54.098;9.998;2022-10-22T01:41:05;54.10;;;33.53;;
7485;SDS011;3784;54.098;9.998;2022-10-22T01:43:32;60.83;;;37.47;;
7485;SDS011;3784;54.098;9.998;2022-10-22T01:45:59;58.17;;;36.23;;
7485;SDS011;3784;54.098;9.998;2022-10-22T01:54:35;53.57;;;34.17;;
7485;SDS011;3784;54.098;9.998;2022-10-22T01:59:38;56.00;;;34.90;;
7485;SDS011;3784;54.098;9.998;2022-10-22T02:07:40;71.10;;;39.80;;
7485;SDS011;3784;54.098;9.998;2022-10-22T02:10:09;59.37;;;36.33;;
7485;SDS011;3784;54.098;9.998;2022-10-22T02:12:37;58.10;;;36.37;;
7485;SDS011;3784;54.098;9.998;2022-10-22T02:15:05;53.60;;;34.87;;
7485;SDS011;3784;54.098;9.998;2022-10-22T02:17:32;60.20;;;36.07;;
7485;SDS011;3784;54.098;9.998;2022-10-22T02:20:11;86.97;;;40.60;;
7485;SDS011;3784;54.098;9.998;2022-10-22T02:22:41;63.90;;;36.60;;
7485;SDS011;3784;54.098;9.998;2022-10-22T02:25:08;62.63;;;37.30;;
7485;SDS011;3784;54.098;9.998;2022-10-22T02:27:46;57.43;;;35.43;;
7485;SDS011;3784;54.098;9.998;2022-10-22T02:30:16;63.67;;;35.97;;
7485;SDS011;3784;54.098;9.998;2022-10-22T02:32:53;73.03;;;38.03;;
7485;SDS011;3784;54.098;9.998;2022-10-22T02:35:23;91.87;;;41.10;;
7485;SDS011;3784;54.098;9.998;2022-10-22T02:37:52;56.90;;;33.87;;
7485;SDS011;3784;54.098;9.998;2022-10-22T02:40:19;99.50;;;41.23;;
7485;SDS011;3784;54.098;9.998;2022-10-22T02:42:46;58.10;;;35.10;;
7485;SDS011;3784;54.098;9.998;2022-10-22T02:45:14;52.67;;;33.17;;
7485;SDS011;3784;54.098;9.998;2022-10-22T02:47:41;49.40;;;32.47;;
7485;SDS011;3784;54.098;9.998;2022-10-22T02:50:08;48.57;;;31.50;;
7485;SDS011;3784;54.098;9.998;2022-10-22T02:52:35;51.23;;;32.50;;
7485;SDS011;3784;54.098;9.998;2022-10-22T02:55:03;42.17;;;28.47;;
7485;SDS011;3784;54.098;9.998;2022-10-22T02:57:30;46.87;;;30.87;;
7485;SDS011;3784;54.098;9.998;2022-10-22T02:59:57;51.03;;;31.97;;
7485;SDS011;3784;54.098;9.998;2022-10-22T03:02:23;48.53;;;32.30;;
7485;SDS011;3784;54.098;9.998;2022-10-22T03:04:50;43.23;;;30.57;;
7485;SDS011;3784;54.098;9.998;2022-10-22T03:07:16;52.03;;;32.37;;
7485;SDS011;3784;54.098;9.998;2022-10-22T03:09:43;141.33;;;45.43;;
7485;SDS011;3784;54.098;9.998;2022-10-22T03:12:09;56.47;;;32.87;;
7485;SDS011;3784;54.098;9.998;2022-10-22T03:14:36;38.10;;;28.13;;
7485;SDS011;3784;54.098;9.998;2022-10-22T03:17:02;44.27;;;29.07;;
7485;SDS011;3784;54.098;9.998;2022-10-22T03:19:29;106.40;;;40.77;;
7485;SDS011;3784;54.098;9.998;2022-10-22T03:21:56;45.70;;;28.60;;
7485;SDS011;3784;54.098;9.998;2022-10-22T03:24:37;50.30;;;29.57;;
7485;SDS011;3784;54.098;9.998;2022-10-22T03:27:05;38.27;;;24.77;;
7485;SDS011;3784;54.098;9.998;2022-10-22T03:29:32;42.73;;;27.50;;
7485;SDS011;3784;54.098;9.998;2022-10-22T03:32:01;37.30;;;26.57;;
7485;SDS011;3784;54.098;9.998;2022-10-22T03:34:28;31.23;;;22.87;;
7485;SDS011;3784;54.098;9.998;2022-10-22T03:36:55;39.80;;;27.53;;
7485;SDS011;3784;54.098;9.998;2022-10-22T03:39:22;43.53;;;29.00;;
7485;SDS011;3784;54.098;9.998;2022-10-22T03:41:49;65.73;;;35.73;;
7485;SDS011;3784;54.098;9.998;2022-10-22T03:44:16;60.63;;;35.80;;
7485;SDS011;3784;54.098;9.998;2022-10-22T03:46:43;89.53;;;41.80;;
7485;SDS011;3784;54.098;9.998;2022-10-22T03:49:10;168.53;;;49.93;;
7485;SDS011;3784;54.098;9.998;2022-10-22T03:51:36;79.97;;;40.07;;
7485;SDS011;3784;54.098;9.998;2022-10-22T03:54:03;115.00;;;45.17;;
7485;SDS011;3784;54.098;9.998;2022-10-22T03:56:30;201.77;;;51.60;;
7485;SDS011;3784;54.098;9.998;2022-10-22T03:58:57;300.10;;;56.83;;
7485;SDS011;3784;54.098;9.998;2022-10-22T04:01:25;360.27;;;60.87;;
7485;SDS011;3784;54.098;9.998;2022-10-22T04:03:53;530.13;;;78.47;;
7485;SDS011;3784;54.098;9.998;2022-10-22T04:06:19;280.70;;;52.07;;
7485;SDS011;3784;54.098;9.998;2022-10-22T04:08:46;276.67;;;54.80;;
7485;SDS011;3784;54.098;9.998;2022-10-22T04:11:13;248.60;;;53.60;;
7485;SDS011;3784;54.098;9.998;2022-10-22T04:13:41;276.23;;;56.40;;
7485;SDS011;3784;54.098;9.998;2022-10-22T04:16:15;259.43;;;53.97;;
7485;SDS011;3784;54.098;9.998;2022-10-22T04:18:44;223.50;;;49.40;;
7485;SDS011;3784;54.098;9.998;2022-10-22T04:21:13;365.87;;;61.77;;
7485;SDS011;3784;54.098;9.998;2022-10-22T04:23:44;254.80;;;50.30;;
7485;SDS011;3784;54.098;9.998;2022-10-22T04:26:12;247.43;;;50.37;;
7485;SDS011;3784;54.098;9.998;2022-10-22T04:28:39;193.23;;;47.40;;
7485;SDS011;3784;54.098;9.998;2022-10-22T04:31:06;227.73;;;49.20;;
7485;SDS011;3784;54.098;9.998;2022-10-22T04:33:34;219.23;;;48.90;;
7485;SDS011;3784;54.098;9.998;2022-10-22T04:36:05;196.23;;;46.93;;
7485;SDS011;3784;54.098;9.998;2022-10-22T04:38:35;242.63;;;51.43;;
7485;SDS011;3784;54.098;9.998;2022-10-22T04:41:11;328.37;;;57.47;;
7485;SDS011;3784;54.098;9.998;2022-10-22T04:43:42;273.77;;;53.20;;
7485;SDS011;3784;54.098;9.998;2022-10-22T04:46:09;200.90;;;50.23;;
7485;SDS011;3784;54.098;9.998;2022-10-22T04:48:37;231.90;;;49.47;;
7485;SDS011;3784;54.098;9.998;2022-10-22T04:51:05;316.93;;;56.30;;
7485;SDS011;3784;54.098;9.998;2022-10-22T04:53:33;223.07;;;52.47;;
7485;SDS011;3784;54.098;9.998;2022-10-22T04:56:10;466.37;;;71.77;;
7485;SDS011;3784;54.098;9.998;2022-10-22T04:58:38;340.03;;;60.57;;
7485;SDS011;3784;54.098;9.998;2022-10-22T05:01:15;360.10;;;60.77;;
7485;SDS011;3784;54.098;9.998;2022-10-22T05:03:47;163.27;;;45.53;;
7485;SDS011;3784;54.098;9.998;2022-10-22T05:06:14;299.27;;;58.27;;
7485;SDS011;3784;54.098;9.998;2022-10-22T05:08:41;121.33;;;44.30;;
7485;SDS011;3784;54.098;9.998;2022-10-22T05:11:13;270.30;;;53.20;;
7485;SDS011;3784;54.098;9.998;2022-10-22T05:13:40;210.47;;;52.23;;
7485;SDS011;3784;54.098;9.998;2022-10-22T05:16:06;266.57;;;56.63;;
7485;SDS011;3784;54.098;9.998;2022-10-22T05:18:34;260.30;;;56.63;;
7485;SDS011;3784;54.098;9.998;2022-10-22T05:21:07;289.70;;;57.73;;
7485;SDS011;3784;54.098;9.998;2022-10-22T05:23:35;386.20;;;63.83;;
7485;SDS011;3784;54.098;9.998;2022-10-22T05:26:05;295.67;;;58.67;;
7485;SDS011;3784;54.098;9.998;2022-10-22T05:28:32;251.03;;;55.73;;
7485;SDS011;3784;54.098;9.998;2022-10-22T05:30:59;1081.03;;;97.47;;
7485;SDS011;3784;54.098;9.998;2022-10-22T05:33:27;192.77;;;50.87;;
7485;SDS011;3784;54.098;9.998;2022-10-22T05:35:55;220.43;;;51.07;;
7485;SDS011;3784;54.098;9.998;2022-10-22T05:38:22;93.93;;;40.20;;
7485;SDS011;3784;54.098;9.998;2022-10-22T05:40:59;181.27;;;47.93;;
7485;SDS011;3784;54.098;9.998;2022-10-22T05:43:26;86.00;;;41.03;;
7485;SDS011;3784;54.098;9.998;2022-10-22T05:45:52;89.83;;;38.70;;
7485;SDS011;3784;54.098;9.998;2022-10-22T05:48:19;183.40;;;48.93;;
7485;SDS011;3784;54.098;9.998;2022-10-22T05:50:45;116.97;;;42.90;;
7485;SDS011;3784;54.098;9.998;2022-10-22T05:53:16;148.80;;;45.33;;
7485;SDS011;3784;54.098;9.998;2022-10-22T05:55:43;187.20;;;47.67;;
7485;SDS011;3784;54.098;9.998;2022-10-22T05:58:10;142.53;;;45.60;;
7485;SDS011;3784;54.098;9.998;2022-10-22T06:00:37;170.80;;;50.60;;
7485;SDS011;3784;54.098;9.998;2022-10-22T06:03:04;133.43;;;41.83;;
7485;SDS011;3784;54.098;9.998;2022-10-22T06:05:33;198.40;;;49.57;;
7485;SDS011;3784;54.098;9.998;2022-10-22T06:08:01;154.07;;;44.00;;
7485;SDS011;3784;54.098;9.998;2022-10-22T06:10:27;173.90;;;44.67;;
7485;SDS011;3784;54.098;9.998;2022-10-22T06:12:54;141.27;;;42.07;;
7485;SDS011;3784;54.098;9.998;2022-10-22T06:15:20;80.80;;;36.10;;
7485;SDS011;3784;54.098;9.998;2022-10-22T06:17:47;142.27;;;42.93;;
7485;SDS011;3784;54.098;9.998;2022-10-22T06:20:13;145.33;;;44.57;;
7485;SDS011;3784;54.098;9.998;2022-10-22T06:22:40;129.40;;;41.73;;
7485;SDS011;3784;54.098;9.998;2022-10-22T06:25:07;151.23;;;47.00;;
7485;SDS011;3784;54.098;9.998;2022-10-22T06:27:34;109.33;;;41.47;;
7485;SDS011;3784;54.098;9.998;2022-10-22T06:30:00;212.43;;;50.00;;
7485;SDS011;3784;54.098;9.998;2022-10-22T06:32:27;139.60;;;45.57;;
7485;SDS011;3784;54.098;9.998;2022-10-22T06:34:53;173.30;;;47.57;;
7485;SDS011;3784;54.098;9.998;2022-10-22T06:37:19;251.87;;;53.90;;
7485;SDS011;3784;54.098;9.998;2022-10-22T06:39:46;184.10;;;50.47;;
7485;SDS011;3784;54.098;9.998;2022-10-22T06:42:13;138.33;;;47.63;;
7485;SDS011;3784;54.098;9.998;2022-10-22T06:44:39;109.30;;;44.20;;
7485;SDS011;3784;54.098;9.998;2022-10-22T06:47:06;69.13;;;35.67;;
7485;SDS011;3784;54.098;9.998;2022-10-22T06:49:32;85.30;;;39.90;;
7485;SDS011;3784;54.098;9.998;2022-10-22T06:51:59;191.47;;;52.23;;
7485;SDS011;3784;54.098;9.998;2022-10-22T06:54:25;139.30;;;45.87;;
7485;SDS011;3784;54.098;9.998;2022-10-22T06:56:52;168.47;;;48.90;;
7485;SDS011;3784;54.098;9.998;2022-10-22T06:59:18;129.87;;;45.93;;
7485;SDS011;3784;54.098;9.998;2022-10-22T07:01:44;71.37;;;37.07;;
7485;SDS011;3784;54.098;9.998;2022-10-22T07:04:11;159.17;;;48.73;;
7485;SDS011;3784;54.098;9.998;2022-10-22T07:06:38;145.10;;;47.57;;
7485;SDS011;3784;54.098;9.998;2022-10-22T07:09:04;187.20;;;49.90;;
7485;SDS011;3784;54.098;9.998;2022-10-22T07:11:41;186.73;;;52.07;;
7485;SDS011;3784;54.098;9.998;2022-10-22T07:14:09;137.67;;;48.83;;
7485;SDS011;3784;54.098;9.998;2022-10-22T07:16:36;193.23;;;49.67;;
7485;SDS011;3784;54.098;9.998;2022-10-22T07:19:03;169.57;;;49.53;;
7485;SDS011;3784;54.098;9.998;2022-10-22T07:21:30;186.80;;;56.47;;
7485;SDS011;3784;54.098;9.998;2022-10-22T07:23:57;149.13;;;48.47;;
7485;SDS011;3784;54.098;9.998;2022-10-22T07:26:24;167.73;;;49.07;;
7485;SDS011;3784;54.098;9.998;2022-10-22T07:28:53;170.43;;;50.20;;
7485;SDS011;3784;54.098;9.998;2022-10-22T07:31:20;134.27;;;46.40;;
7485;SDS011;3784;54.098;9.998;2022-10-22T07:33:46;148.03;;;47.37;;
7485;SDS011;3784;54.098;9.998;2022-10-22T07:36:13;165.53;;;50.47;;
7485;SDS011;3784;54.098;9.998;2022-10-22T07:38:44;188.97;;;52.37;;
7485;SDS011;3784;54.098;9.998;2022-10-22T07:41:12;159.37;;;51.23;;
7485;SDS011;3784;54.098;9.998;2022-10-22T07:43:39;180.13;;;54.63;;
7485;SDS011;3784;54.098;9.998;2022-10-22T07:46:06;162.60;;;50.57;;
7485;SDS011;3784;54.098;9.998;2022-10-22T07:48:34;233.40;;;60.87;;
7485;SDS011;3784;54.098;9.998;2022-10-22T07:51:01;160.27;;;51.57;;
7485;SDS011;3784;54.098;9.998;2022-10-22T07:53:28;145.77;;;50.73;;
7485;SDS011;3784;54.098;9.998;2022-10-22T07:55:55;156.80;;;50.40;;
7485;SDS011;3784;54.098;9.998;2022-10-22T07:58:22;148.60;;;50.10;;
7485;SDS011;3784;54.098;9.998;2022-10-22T08:00:49;145.53;;;49.83;;
7485;SDS011;3784;54.098;9.998;2022-10-22T08:03:16;149.53;;;52.13;;
7485;SDS011;3784;54.098;9.998;2022-10-22T08:05:43;94.83;;;44.30;;
7485;SDS011;3784;54.098;9.998;2022-10-22T08:08:09;130.87;;;48.63;;
7485;SDS011;3784;54.098;9.998;2022-10-22T08:10:37;102.10;;;44.90;;
7485;SDS011;3784;54.098;9.998;2022-10-22T08:13:04;114.00;;;47.53;;
7485;SDS011;3784;54.098;9.998;2022-10-22T08:15:31;98.33;;;43.93;;
7485;SDS011;3784;54.098;9.998;2022-10-22T08:17:57;121.50;;;46.13;;
7485;SDS011;3784;54.098;9.998;2022-10-22T08:20:24;125.53;;;47.03;;
7485;SDS011;3784;54.098;9.998;2022-10-22T08:22:50;103.30;;;44.80;;
7485;SDS011;3784;54.098;9.998;2022-10-22T08:25:17;95.83;;;44.03;;
7485;SDS011;3784;54.098;9.998;2022-10-22T08:27:44;97.13;;;43.37;;
7485;SDS011;3784;54.098;9.998;2022-10-22T08:30:11;82.37;;;42.57;;
7485;SDS011;3784;54.098;9.998;2022-10-22T08:32:38;83.43;;;42.87;;
7485;SDS011;3784;54.098;9.998;2022-10-22T08:35:04;134.77;;;49.97;;
7485;SDS011;3784;54.098;9.998;2022-10-22T08:37:31;87.87;;;42.63;;
7485;SDS011;3784;54.098;9.998;2022-10-22T08:39:58;109.83;;;47.90;;
7485;SDS011;3784;54.098;9.998;2022-10-22T08:50:41;68.73;;;40.97;;
7485;SDS011;3784;54.098;9.998;2022-10-22T08:53:18;66.70;;;40.37;;
7485;SDS011;3784;54.098;9.998;2022-10-22T08:55:46;94.83;;;47.37;;
7485;SDS011;3784;54.098;9.998;2022-10-22T09:03:44;71.37;;;42.80;;
7485;SDS011;3784;54.098;9.998;2022-10-22T09:06:17;67.73;;;41.73;;
7485;SDS011;3784;54.098;9.998;2022-10-22T09:08:47;73.67;;;42.67;;
7485;SDS011;3784;54.098;9.998;2022-10-22T09:13:53;47.77;;;36.97;;
7485;SDS011;3784;54.098;9.998;2022-10-22T09:16:24;52.37;;;38.20;;
7485;SDS011;3784;54.098;9.998;2022-10-22T09:27:46;53.27;;;38.77;;
7485;SDS011;3784;54.098;9.998;2022-10-22T09:30:18;39.83;;;34.97;;
7485;SDS011;3784;54.098;9.998;2022-10-22T09:32:49;42.97;;;35.13;;
7485;SDS011;3784;54.098;9.998;2022-10-22T09:35:20;40.73;;;33.47;;
7485;SDS011;3784;54.098;9.998;2022-10-22T09:37:49;36.17;;;32.23;;
7485;SDS011;3784;54.098;9.998;2022-10-22T09:40:17;34.10;;;30.40;;
7485;SDS011;3784;54.098;9.998;2022-10-22T09:42:44;32.87;;;29.53;;
7485;SDS011;3784;54.098;9.998;2022-10-22T09:45:19;36.13;;;31.33;;
7485;SDS011;3784;54.098;9.998;2022-10-22T09:47:50;31.30;;;28.20;;
7485;SDS011;3784;54.098;9.998;2022-10-22T09:50:43;31.70;;;27.77;;
7485;SDS011;3784;54.098;9.998;2022-10-22T09:53:11;30.03;;;26.93;;
7485;SDS011;3784;54.098;9.998;2022-10-22T09:55:39;31.47;;;27.17;;
7485;SDS011;3784;54.098;9.998;2022-10-22T09:58:08;27.33;;;23.93;;
7485;SDS011;3784;54.098;9.998;2022-10-22T10:00:40;25.53;;;23.10;;
7485;SDS011;3784;54.098;9.998;2022-10-22T10:03:16;26.23;;;23.70;;
7485;SDS011;3784;54.098;9.998;2022-10-22T10:05:49;24.17;;;22.00;;
7485;SDS011;3784;54.098;9.998;2022-10-22T10:08:18;26.00;;;23.30;;
7485;SDS011;3784;54.098;9.998;2022-10-22T10:10:49;22.80;;;20.53;;
7485;SDS011;3784;54.098;9.998;2022-10-22T10:33:00;23.87;;;21.50;;
7485;SDS011;3784;54.098;9.998;2022-10-22T10:38:26;21.57;;;19.37;;
7485;SDS011;3784;54.098;9.998;2022-10-22T10:40:58;18.47;;;16.60;;
7485;SDS011;3784;54.098;9.998;2022-10-22T10:46:16;16.60;;;14.90;;
7485;SDS011;3784;54.098;9.998;2022-10-22T10:48:55;20.63;;;14.93;;
7485;SDS011;3784;54.098;9.998;2022-10-22T10:51:28;14.37;;;12.60;;
7485;SDS011;3784;54.098;9.998;2022-10-22T10:56:48;14.53;;;11.10;;
7485;SDS011;3784;54.098;9.998;2022-10-22T11:04:40;15.20;;;9.57;;
7485;SDS011;3784;54.098;9.998;2022-10-22T11:07:22;11.53;;;8.20;;
7485;SDS011;3784;54.098;9.998;2022-10-22T11:10:22;12.60;;;7.80;;
7485;SDS011;3784;54.098;9.998;2022-10-22T11:12:55;10.90;;;7.27;;
7485;SDS011;3784;54.098;9.998;2022-10-22T11:15:26;9.80;;;7.00;;
7485;SDS011;3784;54.098;9.998;2022-10-22T11:18:19;8.80;;;7.10;;
7485;SDS011;3784;54.098;9.998;2022-10-22T11:23:31;13.03;;;7.23;;
7485;SDS011;3784;54.098;9.998;2022-10-22T11:26:04;11.33;;;7.53;;
7485;SDS011;3784;54.098;9.998;2022-10-22T11:28:36;9.40;;;7.03;;
7485;SDS011;3784;54.098;9.998;2022-10-22T11:33:50;10.80;;;7.47;;
7485;SDS011;3784;54.098;9.998;2022-10-22T11:36:35;13.90;;;6.50;;
7485;SDS011;3784;54.098;9.998;2022-10-22T11:39:02;9.87;;;5.73;;
7485;SDS011;3784;54.098;9.998;2022-10-22T11:41:29;9.77;;;5.50;;
7485;SDS011;3784;54.098;9.998;2022-10-22T11:46:45;10.70;;;5.37;;
7485;SDS011;3784;54.098;9.998;2022-10-22T11:49:26;8.43;;;4.83;;
7485;SDS011;3784;54.098;9.998;2022-10-22T11:54:55;7.57;;;4.20;;
7485;SDS011;3784;54.098;9.998;2022-10-22T11:57:27;8.23;;;4.10;;
7485;SDS011;3784;54.098;9.998;2022-10-22T12:00:32;9.00;;;4.03;;
7485;SDS011;3784;54.098;9.998;2022-10-22T12:14:00;7.90;;;3.77;;
7485;SDS011;3784;54.098;9.998;2022-10-22T12:21:51;8.47;;;4.30;;
7485;SDS011;3784;54.098;9.998;2022-10-22T12:24:21;10.57;;;3.03;;
7485;SDS011;3784;54.098;9.998;2022-10-22T12:26:49;5.23;;;2.87;;
7485;SDS011;3784;54.098;9.998;2022-10-22T12:29:19;10.13;;;3.37;;
7485;SDS011;3784;54.098;9.998;2022-10-22T12:31:53;8.30;;;2.70;;
7485;SDS011;3784;54.098;9.998;2022-10-22T12:34:21;8.33;;;2.90;;
7485;SDS011;3784;54.098;9.998;2022-10-22T12:36:50;10.17;;;3.50;;
7485;SDS011;3784;54.098;9.998;2022-10-22T12:39:22;8.43;;;3.30;;
7485;SDS011;3784;54.098;9.998;2022-10-22T12:41:52;8.87;;;3.80;;
7485;SDS011;3784;54.098;9.998;2022-10-22T12:44:19;8.90;;;3.60;;
7485;SDS011;3784;54.098;9.998;2022-10-22T12:46:47;8.73;;;3.63;;
7485;SDS011;3784;54.098;9.998;2022-10-22T12:49:21;8.03;;;3.17;;
7485;SDS011;3784;54.098;9.998;2022-10-22T12:52:04;7.70;;;4.03;;
7485;SDS011;3784;54.098;9.998;2022-10-22T12:54:38;12.40;;;4.43;;
7485;SDS011;3784;54.098;9.998;2022-10-22T12:57:05;12.73;;;5.57;;
7485;SDS011;3784;54.098;9.998;2022-10-22T12:59:35;10.93;;;6.53;;
7485;SDS011;3784;54.098;9.998;2022-10-22T13:02:08;15.47;;;6.30;;
7485;SDS011;3784;54.098;9.998;2022-10-22T13:04:41;9.67;;;5.87;;
7485;SDS011;3784;54.098;9.998;2022-10-22T13:12:05;14.20;;;5.47;;
7485;SDS011;3784;54.098;9.998;2022-10-22T13:14:35;9.37;;;4.60;;
7485;SDS011;3784;54.098;9.998;2022-10-22T13:19:43;8.33;;;4.70;;
7485;SDS011;3784;54.098;9.998;2022-10-22T13:27:45;7.43;;;5.03;;
7485;SDS011;3784;54.098;9.998;2022-10-22T13:30:18;9.43;;;5.00;;
7485;SDS011;3784;54.098;9.998;2022-10-22T13:32:56;12.43;;;5.40;;
7485;SDS011;3784;54.098;9.998;2022-10-22T13:35:26;8.60;;;5.10;;
7485;SDS011;3784;54.098;9.998;2022-10-22T13:37:54;11.30;;;5.73;;
7485;SDS011;3784;54.098;9.998;2022-10-22T13:40:21;11.50;;;5.30;;
7485;SDS011;3784;54.098;9.998;2022-10-22T13:42:48;10.27;;;5.20;;
7485;SDS011;3784;54.098;9.998;2022-10-22T13:45:14;11.43;;;5.40;;
7485;SDS011;3784;54.098;9.998;2022-10-22T13:47:43;12.53;;;5.50;;
7485;SDS011;3784;54.098;9.998;2022-10-22T13:50:14;9.30;;;5.70;;
7485;SDS011;3784;54.098;9.998;2022-10-22T13:52:43;13.50;;;6.23;;
7485;SDS011;3784;54.098;9.998;2022-10-22T13:55:17;8.17;;;6.07;;
7485;SDS011;3784;54.098;9.998;2022-10-22T13:57:51;11.17;;;7.47;;
7485;SDS011;3784;54.098;9.998;2022-10-22T14:00:19;10.53;;;6.57;;
7485;SDS011;3784;54.098;9.998;2022-10-22T14:02:47;15.20;;;7.87;;
7485;SDS011;3784;54.098;9.998;2022-10-22T14:05:15;9.77;;;6.80;;
7485;SDS011;3784;54.098;9.998;2022-10-22T14:07:43;10.50;;;7.30;;
7485;SDS011;3784;54.098;9.998;2022-10-22T14:10:19;14.03;;;8.97;;
7485;SDS011;3784;54.098;9.998;2022-10-22T14:12:47;13.90;;;8.53;;
7485;SDS011;3784;54.098;9.998;2022-10-22T14:15:19;12.77;;;8.07;;
7485;SDS011;3784;54.098;9.998;2022-10-22T14:17:51;13.97;;;8.70;;
7485;SDS011;3784;54.098;9.998;2022-10-22T14:20:20;13.57;;;8.33;;
7485;SDS011;3784;54.098;9.998;2022-10-22T14:22:49;11.47;;;8.00;;
7485;SDS011;3784;54.098;9.998;2022-10-22T14:25:17;13.67;;;8.67;;
7485;SDS011;3784;54.098;9.998;2022-10-22T14:27:45;13.27;;;9.13;;
7485;SDS011;3784;54.098;9.998;2022-10-22T14:30:13;15.97;;;9.67;;
7485;SDS011;3784;54.098;9.998;2022-10-22T14:32:41;19.67;;;8.80;;
7485;SDS011;3784;54.098;9.998;2022-10-22T14:35:12;13.27;;;8.80;;
7485;SDS011;3784;54.098;9.998;2022-10-22T14:37:39;22.10;;;9.53;;
7485;SDS011;3784;54.098;9.998;2022-10-22T14:40:06;12.43;;;7.57;;
7485;SDS011;3784;54.098;9.998;2022-10-22T14:42:36;11.87;;;6.90;;
7485;SDS011;3784;54.098;9.998;2022-10-22T14:45:18;10.67;;;7.17;;
7485;SDS011;3784;54.098;9.998;2022-10-22T14:47:47;9.67;;;6.37;;
7485;SDS011;3784;54.098;9.998;2022-10-22T14:50:14;10.60;;;6.20;;
7485;SDS011;3784;54.098;9.998;2022-10-22T14:52:41;11.87;;;5.63;;
7485;SDS011;3784;54.098;9.998;2022-10-22T14:55:09;10.93;;;5.90;;
7485;SDS011;3784;54.098;9.998;2022-10-22T14:57:37;9.63;;;5.87;;
7485;SDS011;3784;54.098;9.998;2022-10-22T15:00:06;9.07;;;5.60;;
7485;SDS011;3784;54.098;9.998;2022-10-22T15:02:34;12.73;;;6.80;;
7485;SDS011;3784;54.098;9.998;2022-10-22T15:05:00;13.43;;;6.67;;
7485;SDS011;3784;54.098;9.998;2022-10-22T15:07:27;10.27;;;5.63;;
7485;SDS011;3784;54.098;9.998;2022-10-22T15:09:53;10.17;;;4.93;;
7485;SDS011;3784;54.098;9.998;2022-10-22T15:12:20;15.33;;;4.63;;
7485;SDS011;3784;54.098;9.998;2022-10-22T15:14:46;14.90;;;4.90;;
7485;SDS011;3784;54.098;9.998;2022-10-22T15:17:13;14.97;;;4.50;;
7485;SDS011;3784;54.098;9.998;2022-10-22T15:19:40;11.60;;;4.37;;
7485;SDS011;3784;54.098;9.998;2022-10-22T15:22:11;7.93;;;4.07;;
7485;SDS011;3784;54.098;9.998;2022-10-22T15:24:38;8.07;;;4.20;;
7485;SDS011;3784;54.098;9.998;2022-10-22T15:27:05;10.60;;;4.00;;
7485;SDS011;3784;54.098;9.998;2022-10-22T15:29:32;8.53;;;4.07;;
7485;SDS011;3784;54.098;9.998;2022-10-22T15:31:58;11.07;;;4.03;;
7485;SDS011;3784;54.098;9.998;2022-10-22T15:34:26;9.80;;;4.43;;
7485;SDS011;3784;54.098;9.998;2022-10-22T15:36:55;9.53;;;4.07;;
7485;SDS011;3784;54.098;9.998;2022-10-22T15:39:23;9.40;;;4.20;;
7485;SDS011;3784;54.098;9.998;2022-10-22T15:41:50;10.10;;;4.80;;
7485;SDS011;3784;54.098;9.998;2022-10-22T15:44:18;12.40;;;4.27;;
7485;SDS011;3784;54.098;9.998;2022-10-22T15:46:45;14.27;;;4.77;;
7485;SDS011;3784;54.098;9.998;2022-10-22T15:49:12;10.40;;;5.80;;
7485;SDS011;3784;54.098;9.998;2022-10-22T15:51:39;14.73;;;5.20;;
7485;SDS011;3784;54.098;9.998;2022-10-22T15:54:06;14.70;;;4.60;;
7485;SDS011;3784;54.098;9.998;2022-10-22T15:56:38;11.30;;;4.90;;
7485;SDS011;3784;54.098;9.998;2022-10-22T15:59:05;14.23;;;4.80;;
7485;SDS011;3784;54.098;9.998;2022-10-22T16:01:32;14.93;;;5.10;;
7485;SDS011;3784;54.098;9.998;2022-10-22T16:03:59;14.87;;;5.33;;
7485;SDS011;3784;54.098;9.998;2022-10-22T16:06:31;12.70;;;5.90;;
7485;SDS011;3784;54.098;9.998;2022-10-22T16:09:00;11.00;;;5.70;;
7485;SDS011;3784;54.098;9.998;2022-10-22T16:11:29;11.77;;;5.17;;
7485;SDS011;3784;54.098;9.998;2022-10-22T16:13:56;9.87;;;4.70;;
7485;SDS011;3784;54.098;9.998;2022-10-22T16:16:25;12.20;;;5.20;;
7485;SDS011;3784;54.098;9.998;2022-10-22T16:18:52;12.37;;;5.53;;
7485;SDS011;3784;54.098;9.998;2022-10-22T16:21:19;12.23;;;5.30;;
7485;SDS011;3784;54.098;9.998;2022-10-22T16:23:46;9.90;;;4.93;;
7485;SDS011;3784;54.098;9.998;2022-10-22T16:26:14;14.27;;;5.23;;
7485;SDS011;3784;54.098;9.998;2022-10-22T16:28:41;10.07;;;5.00;;
7485;SDS011;3784;54.098;9.998;2022-10-22T16:31:09;12.97;;;5.50;;
7485;SDS011;3784;54.098;9.998;2022-10-22T16:33:37;18.23;;;5.73;;
7485;SDS011;3784;54.098;9.998;2022-10-22T16:36:12;17.10;;;5.30;;
7485;SDS011;3784;54.098;9.998;2022-10-22T16:38:39;9.80;;;5.00;;
7485;SDS011;3784;54.098;9.998;2022-10-22T16:43:37;17.00;;;5.80;;
7485;SDS011;3784;54.098;9.998;2022-10-22T16:46:04;12.60;;;5.43;;
7485;SDS011;3784;54.098;9.998;2022-10-22T16:48:31;10.50;;;5.23;;
7485;SDS011;3784;54.098;9.998;2022-10-22T16:50:58;20.40;;;6.03;;
7485;SDS011;3784;54.098;9.998;2022-10-22T16:53:25;18.23;;;6.03;;
7485;SDS011;3784;54.098;9.998;2022-10-22T16:55:52;11.80;;;5.47;;
7485;SDS011;3784;54.098;9.998;2022-10-22T16:58:18;12.07;;;5.57;;
7485;SDS011;3784;54.098;9.998;2022-10-22T17:00:45;11.33;;;4.47;;
7485;SDS011;3784;54.098;9.998;2022-10-22T17:03:11;16.97;;;6.00;;
7485;SDS011;3784;54.098;9.998;2022-10-22T17:05:38;9.07;;;5.17;;
7485;SDS011;3784;54.098;9.998;2022-10-22T17:08:04;12.47;;;5.53;;